createdAt,value
2018-09-29T00:00:10.193Z,85.92
2018-09-29T00:03:13.878Z,86.29
2018-09-29T00:06:17.923Z,86.36
2018-09-29T00:09:21.556Z,86.40
2018-09-29T00:12:25.120Z,86.53
2018-09-29T00:15:28.677Z,86.59
2018-09-29T00:18:32.239Z,86.17
2018-09-29T00:21:36.105Z,86.29
2018-09-29T00:24:39.655Z,86.27
2018-09-29T00:27:43.210Z,86.42
2018-09-29T00:30:46.847Z,87.85
2018-09-29T00:33:50.370Z,86.89
2018-09-29T00:36:53.950Z,87.61
2018-09-29T00:39:57.480Z,87.59
2018-09-29T00:43:01.241Z,87.50
2018-09-29T00:46:04.900Z,87.65
2018-09-29T00:49:08.381Z,87.69
2018-09-29T00:52:12.592Z,88.39
2018-09-29T00:55:16.196Z,87.88
2018-09-29T00:58:19.780Z,88.10
2018-09-29T01:01:23.451Z,88.13
2018-09-29T01:04:27.012Z,88.46
2018-09-29T01:07:30.517Z,88.61
2018-09-29T01:10:34.197Z,88.58
2018-09-29T01:13:37.896Z,88.43
2018-09-29T01:16:41.483Z,88.32
2018-09-29T01:19:45.071Z,88.76
2018-09-29T01:22:48.846Z,88.47
2018-09-29T01:25:52.378Z,88.75
2018-09-29T01:28:55.903Z,88.49
2018-09-29T01:31:59.507Z,88.33
2018-09-29T01:35:03.071Z,88.30
2018-09-29T01:38:06.636Z,88.47
2018-09-29T01:41:10.142Z,88.31
2018-09-29T01:44:13.886Z,88.55
2018-09-29T01:47:17.444Z,88.67
2018-09-29T01:50:21.035Z,88.61
2018-09-29T01:53:24.667Z,88.88
2018-09-29T01:56:28.431Z,88.91
2018-09-29T01:59:32.069Z,89.24
2018-09-29T02:02:35.769Z,89.07
2018-09-29T02:05:40.287Z,89.30
2018-09-29T02:08:43.798Z,89.69
2018-09-29T02:11:47.348Z,89.29
2018-09-29T02:14:50.867Z,89.39
2018-09-29T02:17:54.521Z,89.18
2018-09-29T02:20:58.192Z,88.98
2018-09-29T02:24:01.915Z,88.84
2018-09-29T02:27:05.556Z,88.77
2018-09-29T02:30:09.105Z,88.96
2018-09-29T02:33:12.747Z,89.23
2018-09-29T02:36:16.267Z,89.37
2018-09-29T02:39:19.912Z,89.70
2018-09-29T02:42:23.607Z,89.95
2018-09-29T02:45:27.163Z,89.52
2018-09-29T02:48:30.741Z,89.91
2018-09-29T02:51:34.621Z,89.81
2018-09-29T02:54:38.282Z,90.29
2018-09-29T02:57:41.785Z,89.87
2018-09-29T03:00:45.293Z,90.46
2018-09-29T03:03:48.893Z,89.72
2018-09-29T03:06:52.406Z,89.75
2018-09-29T03:09:55.933Z,90.01
2018-09-29T03:12:59.502Z,90.22
2018-09-29T03:16:03.133Z,90.23
2018-09-29T03:19:06.683Z,90.32
2018-09-29T03:22:10.239Z,90.28
2018-09-29T03:25:13.819Z,90.20
2018-09-29T03:28:17.319Z,90.23
2018-09-29T03:31:20.955Z,90.34
2018-09-29T03:34:24.569Z,90.45
2018-09-29T03:37:28.248Z,89.90
2018-09-29T03:40:31.815Z,90.01
2018-09-29T03:43:35.393Z,90.26
2018-09-29T03:46:39.343Z,90.14
2018-09-29T03:49:42.853Z,90.49
2018-09-29T03:52:46.405Z,90.65
2018-09-29T03:55:49.934Z,90.81
2018-09-29T03:58:53.464Z,90.66
2018-09-29T04:01:56.961Z,91.02
2018-09-29T04:05:00.589Z,90.79
2018-09-29T04:08:04.164Z,91.21
2018-09-29T04:11:07.708Z,91.61
2018-09-29T04:14:11.228Z,91.84
2018-09-29T04:17:14.905Z,92.32
2018-09-29T04:20:18.625Z,91.82
2018-09-29T04:23:22.309Z,91.94
2018-09-29T04:26:25.971Z,92.11
2018-09-29T04:29:29.538Z,91.73
2018-09-29T04:32:33.115Z,91.78
2018-09-29T04:35:36.640Z,92.03
2018-09-29T04:38:40.250Z,92.15
2018-09-29T04:41:43.849Z,92.34
2018-09-29T04:44:47.357Z,92.20
2018-09-29T04:47:50.878Z,92.35
2018-09-29T04:50:54.445Z,92.32
2018-09-29T04:53:58.025Z,91.31
2018-09-29T04:57:01.565Z,91.37
2018-09-29T05:00:05.225Z,91.71
2018-09-29T05:03:08.865Z,91.58
2018-09-29T05:06:12.501Z,91.18
2018-09-29T05:09:15.990Z,91.48
2018-09-29T05:12:19.792Z,91.48
2018-09-29T05:15:23.494Z,90.46
2018-09-29T05:18:27.013Z,90.16
2018-09-29T05:21:30.661Z,90.56
2018-09-29T05:24:34.231Z,91.50
2018-09-29T05:27:37.915Z,91.48
2018-09-29T05:30:41.529Z,91.68
2018-09-29T05:33:45.101Z,91.52
2018-09-29T05:36:48.748Z,91.22
2018-09-29T05:39:52.338Z,91.30
2018-09-29T05:42:56.024Z,90.84
2018-09-29T05:45:59.700Z,90.72
2018-09-29T05:49:03.384Z,90.13
2018-09-29T05:52:07.009Z,88.66
2018-09-29T05:55:10.573Z,86.19
2018-09-29T05:58:14.114Z,84.00
2018-09-29T06:01:17.789Z,82.67
2018-09-29T06:04:21.285Z,81.39
2018-09-29T06:07:24.884Z,79.69
2018-09-29T06:10:28.326Z,80.40
2018-09-29T06:13:32.120Z,80.53
2018-09-29T06:16:35.667Z,78.60
2018-09-29T06:19:39.226Z,79.33
2018-09-29T06:22:42.678Z,80.48
2018-09-29T06:25:46.284Z,79.89
2018-09-29T06:28:49.857Z,79.30
2018-09-29T06:31:53.437Z,79.27
2018-09-29T06:34:57.151Z,80.22
2018-09-29T06:38:00.735Z,78.36
2018-09-29T06:41:04.425Z,79.22
2018-09-29T06:44:07.990Z,78.71
2018-09-29T06:47:11.518Z,77.34
2018-09-29T06:50:15.117Z,76.55
2018-09-29T06:53:18.782Z,75.71
2018-09-29T06:56:22.351Z,76.48
2018-09-29T06:59:25.932Z,76.66
2018-09-29T07:02:29.445Z,76.59
2018-09-29T07:05:33.023Z,75.76
2018-09-29T07:08:36.981Z,75.84
2018-09-29T07:11:40.808Z,75.65
2018-09-29T07:14:44.412Z,76.51
2018-09-29T07:17:47.921Z,75.24
2018-09-29T07:20:51.564Z,74.74
2018-09-29T07:23:55.200Z,74.50
2018-09-29T07:26:58.711Z,75.33
2018-09-29T07:30:02.216Z,74.81
2018-09-29T07:33:05.835Z,73.98
2018-09-29T07:36:09.410Z,75.68
2018-09-29T07:39:13.081Z,73.63
2018-09-29T07:42:16.727Z,74.46
2018-09-29T07:45:20.316Z,75.36
2018-09-29T07:48:23.923Z,76.08
2018-09-29T07:51:27.568Z,75.77
2018-09-29T07:54:31.127Z,75.30
2018-09-29T07:57:34.744Z,75.39
2018-09-29T08:00:38.494Z,76.38
2018-09-29T08:03:42.226Z,74.39
2018-09-29T08:06:45.934Z,74.65
2018-09-29T08:09:49.606Z,75.26
2018-09-29T08:12:53.287Z,75.30
2018-09-29T08:15:56.964Z,75.91
2018-09-29T08:19:01.097Z,74.04
2018-09-29T08:22:04.805Z,75.48
2018-09-29T08:25:08.492Z,75.36
2018-09-29T08:28:12.213Z,74.34
2018-09-29T08:31:15.769Z,74.48
2018-09-29T08:34:19.474Z,73.90
2018-09-29T08:37:23.305Z,73.91
2018-09-29T08:40:26.999Z,73.37
2018-09-29T08:43:30.614Z,73.98
2018-09-29T08:46:34.390Z,74.08
2018-09-29T08:49:38.023Z,73.48
2018-09-29T08:52:41.702Z,73.54
2018-09-29T08:55:45.419Z,71.99
2018-09-29T08:58:49.170Z,72.97
2018-09-29T09:01:52.740Z,72.36
2018-09-29T09:04:56.442Z,71.76
2018-09-29T09:08:00.128Z,71.08
2018-09-29T09:11:03.649Z,71.52
2018-09-29T09:14:07.467Z,71.67
2018-09-29T09:17:11.187Z,70.86
2018-09-29T09:20:14.702Z,71.23
2018-09-29T09:23:18.391Z,71.37
2018-09-29T09:26:21.866Z,72.31
2018-09-29T09:29:25.479Z,71.71
2018-09-29T09:32:29.034Z,70.60
2018-09-29T09:35:32.672Z,70.39
2018-09-29T09:38:36.319Z,69.88
2018-09-29T09:41:40.122Z,71.85
2018-09-29T09:44:43.713Z,69.47
2018-09-29T09:47:47.340Z,68.12
2018-09-29T09:50:51.085Z,68.52
2018-09-29T09:53:54.845Z,68.42
2018-09-29T09:56:58.508Z,67.99
2018-09-29T10:00:02.207Z,66.21
2018-09-29T10:03:11.285Z,67.25
2018-09-29T10:06:14.854Z,67.06
2018-09-29T10:09:18.484Z,66.27
2018-09-29T10:12:22.147Z,63.48
2018-09-29T10:15:25.816Z,66.09
2018-09-29T10:18:29.428Z,65.12
2018-09-29T10:21:33.264Z,65.29
2018-09-29T10:24:36.858Z,64.42
2018-09-29T10:27:40.500Z,65.67
2018-09-29T10:30:44.084Z,63.10
2018-09-29T10:33:47.739Z,64.03
2018-09-29T10:36:51.339Z,63.55
2018-09-29T10:39:54.918Z,64.43
2018-09-29T10:42:58.528Z,64.10
2018-09-29T10:46:02.125Z,66.90
2018-09-29T10:49:05.772Z,64.49
2018-09-29T10:52:09.382Z,63.62
2018-09-29T10:55:12.994Z,61.12
2018-09-29T10:58:16.663Z,63.68
2018-09-29T11:01:20.152Z,60.42
2018-09-29T11:04:23.916Z,59.60
2018-09-29T11:07:27.497Z,57.10
2018-09-29T11:10:31.089Z,58.01
2018-09-29T11:13:34.655Z,58.63
2018-09-29T11:16:38.245Z,59.21
2018-09-29T11:19:42.046Z,57.50
2018-09-29T11:22:45.640Z,57.30
2018-09-29T11:25:49.297Z,54.96
2018-09-29T11:28:52.868Z,55.24
2018-09-29T11:31:56.489Z,53.89
2018-09-29T11:35:00.213Z,55.41
2018-09-29T11:38:03.825Z,55.02
2018-09-29T11:41:07.583Z,53.96
2018-09-29T11:44:11.196Z,54.91
2018-09-29T11:47:14.779Z,54.14
2018-09-29T11:50:18.562Z,56.56
2018-09-29T11:53:22.259Z,54.36
2018-09-29T11:56:26.064Z,56.56
2018-09-29T11:59:30.023Z,54.28
2018-09-29T12:02:33.639Z,55.42
2018-09-29T12:05:37.323Z,52.16
2018-09-29T12:08:41.029Z,54.10
2018-09-29T12:11:44.744Z,54.40
2018-09-29T12:14:48.398Z,52.23
2018-09-29T12:17:51.930Z,53.03
2018-09-29T12:20:55.482Z,54.54
2018-09-29T12:23:59.203Z,56.18
2018-09-29T12:27:02.795Z,54.28
2018-09-29T12:30:07.190Z,53.29
2018-09-29T12:33:10.959Z,54.03
2018-09-29T12:36:14.540Z,53.33
2018-09-29T12:39:18.172Z,53.25
2018-09-29T12:42:21.720Z,52.08
2018-09-29T12:45:25.280Z,51.46
2018-09-29T12:48:29.871Z,53.22
2018-09-29T12:51:34.193Z,53.37
2018-09-29T12:54:37.650Z,52.74
2018-09-29T12:57:41.239Z,52.53
2018-09-29T13:00:44.815Z,54.76
2018-09-29T13:03:48.520Z,52.18
2018-09-29T13:06:52.251Z,52.52
2018-09-29T13:09:55.883Z,52.94
2018-09-29T13:13:02.002Z,53.86
2018-09-29T13:16:05.695Z,54.15
2018-09-29T13:19:09.386Z,54.96
2018-09-29T13:22:13.074Z,53.31
2018-09-29T13:25:16.620Z,54.14
2018-09-29T13:28:20.244Z,53.29
2018-09-29T13:31:23.809Z,53.68
2018-09-29T13:34:27.459Z,56.02
2018-09-29T13:37:31.120Z,55.41
2018-09-29T13:40:34.855Z,55.73
2018-09-29T13:43:38.465Z,54.63
2018-09-29T13:46:48.810Z,54.17
2018-09-29T13:49:53.103Z,54.70
2018-09-29T13:52:56.744Z,54.50
2018-09-29T13:56:00.352Z,54.68
2018-09-29T13:59:04.812Z,55.44
2018-09-29T14:02:08.505Z,56.03
2018-09-29T14:05:12.131Z,56.85
2018-09-29T14:08:15.882Z,56.74
2018-09-29T14:11:19.480Z,56.72
2018-09-29T14:14:23.111Z,56.39
2018-09-29T14:17:26.776Z,56.41
2018-09-29T14:20:30.534Z,54.67
2018-09-29T14:23:34.069Z,54.41
2018-09-29T14:26:37.689Z,54.73
2018-09-29T14:29:41.311Z,56.41
2018-09-29T14:32:44.916Z,55.21
2018-09-29T14:35:49.399Z,54.85
2018-09-29T14:38:53.542Z,54.99
2018-09-29T14:41:57.267Z,55.97
2018-09-29T14:45:00.841Z,56.31
2018-09-29T14:48:04.596Z,57.74
2018-09-29T14:51:08.706Z,60.15
2018-09-29T14:54:12.327Z,57.69
2018-09-29T14:57:16.022Z,61.91
2018-09-29T15:00:19.682Z,62.73
2018-09-29T15:03:23.372Z,60.19
2018-09-29T15:06:27.287Z,62.53
2018-09-29T15:09:31.074Z,64.92
2018-09-29T15:12:34.652Z,60.90
2018-09-29T15:15:38.230Z,55.57
2018-09-29T15:18:41.828Z,55.92
2018-09-29T15:21:45.410Z,61.20
2018-09-29T15:24:49.026Z,63.00
2018-09-29T15:27:52.585Z,63.41
2018-09-29T15:30:56.282Z,64.51
2018-09-29T15:34:00.043Z,65.99
2018-09-29T15:37:03.819Z,65.58
2018-09-29T15:40:07.506Z,66.64
2018-09-29T15:43:11.147Z,67.57
2018-09-29T15:46:14.926Z,67.71
2018-09-29T15:49:18.921Z,67.08
2018-09-29T15:52:24.938Z,69.79
2018-09-29T15:55:28.755Z,70.65
2018-09-29T15:58:32.286Z,70.27
2018-09-29T16:01:35.944Z,68.79
2018-09-29T16:04:39.517Z,69.79
2018-09-29T16:07:43.125Z,70.84
2018-09-29T16:10:46.808Z,71.08
2018-09-29T16:13:50.425Z,71.34
2018-09-29T16:16:54.056Z,71.18
2018-09-29T16:19:58.040Z,71.84
2018-09-29T16:23:02.206Z,72.64
2018-09-29T16:26:05.839Z,72.69
2018-09-29T16:29:10.413Z,72.89
2018-09-29T16:32:15.504Z,72.87
2018-09-29T16:35:20.781Z,73.30
2018-09-29T16:38:24.974Z,73.27
2018-09-29T16:41:28.710Z,73.37
2018-09-29T16:44:32.353Z,73.72
2018-09-29T16:47:36.489Z,73.69
2018-09-29T16:50:40.201Z,73.42
2018-09-29T16:53:43.873Z,73.66
2018-09-29T16:56:48.392Z,73.85
2018-09-29T16:59:52.196Z,74.17
2018-09-29T17:02:55.829Z,74.94
2018-09-29T17:05:59.563Z,74.39
2018-09-29T17:09:04.103Z,74.40
2018-09-29T17:12:08.234Z,74.46
2018-09-29T17:15:12.029Z,74.24
2018-09-29T17:18:15.773Z,73.84
2018-09-29T17:21:19.552Z,73.87
2018-09-29T17:24:23.165Z,73.91
2018-09-29T17:27:26.835Z,73.90
2018-09-29T17:30:30.442Z,74.52
2018-09-29T17:33:34.068Z,74.91
2018-09-29T17:36:37.703Z,75.84
2018-09-29T17:39:41.408Z,75.68
2018-09-29T17:42:45.268Z,75.81
2018-09-29T17:45:48.961Z,75.07
2018-09-29T17:48:52.541Z,75.41
2018-09-29T17:51:56.304Z,75.21
2018-09-29T17:55:00.080Z,74.75
2018-09-29T17:58:03.763Z,74.88
2018-09-29T18:01:07.681Z,73.96
2018-09-29T18:04:11.515Z,74.49
2018-09-29T18:07:15.007Z,74.70
2018-09-29T18:10:18.870Z,74.84
2018-09-29T18:13:22.686Z,75.50
2018-09-29T18:16:26.561Z,75.57
2018-09-29T18:19:30.403Z,75.31
2018-09-29T18:22:33.963Z,76.04
2018-09-29T18:25:37.708Z,76.16
2018-09-29T18:28:41.379Z,76.99
2018-09-29T18:31:44.984Z,76.87
2018-09-29T18:34:48.603Z,76.97
2018-09-29T18:37:52.171Z,77.13
2018-09-29T18:40:55.902Z,76.94
2018-09-29T18:43:59.663Z,77.15
2018-09-29T18:47:03.266Z,76.94
2018-09-29T18:50:07.005Z,76.88
2018-09-29T18:53:10.705Z,76.96
2018-09-29T18:56:14.354Z,77.27
2018-09-29T18:59:19.157Z,78.21
2018-09-29T19:02:22.865Z,77.55
2018-09-29T19:05:26.554Z,77.73
2018-09-29T19:08:30.279Z,77.87
2018-09-29T19:11:35.236Z,78.07
2018-09-29T19:14:38.882Z,77.96
2018-09-29T19:17:42.671Z,78.63
2018-09-29T19:20:46.385Z,78.16
2018-09-29T19:23:49.932Z,78.58
2018-09-29T19:26:53.539Z,78.84
2018-09-29T19:29:57.198Z,79.77
2018-09-29T19:33:00.801Z,79.12
2018-09-29T19:36:04.658Z,79.35
2018-09-29T19:39:08.407Z,79.67
2018-09-29T19:42:12.041Z,79.48
2018-09-29T19:45:15.777Z,79.22
2018-09-29T19:48:19.696Z,78.67
2018-09-29T19:51:23.452Z,78.22
2018-09-29T19:54:27.122Z,77.44
2018-09-29T19:57:30.751Z,76.60
2018-09-29T20:00:34.399Z,76.37
2018-09-29T20:03:37.920Z,74.29
2018-09-29T20:06:41.631Z,72.95
2018-09-29T20:09:45.221Z,72.78
2018-09-29T20:12:48.905Z,73.00
2018-09-29T20:15:52.624Z,70.77
2018-09-29T20:18:56.256Z,71.01
2018-09-29T20:21:59.915Z,71.56
2018-09-29T20:25:03.758Z,70.62
2018-09-29T20:28:07.723Z,71.18
2018-09-29T20:31:11.367Z,70.62
2018-09-29T20:34:14.981Z,71.39
2018-09-29T20:37:18.676Z,70.88
2018-09-29T20:40:23.900Z,69.89
2018-09-29T20:43:27.572Z,70.34
2018-09-29T20:46:31.151Z,70.04
2018-09-29T20:49:34.934Z,69.57
2018-09-29T20:52:38.685Z,69.63
2018-09-29T20:55:42.296Z,69.21
2018-09-29T20:58:45.908Z,68.51
2018-09-29T21:01:49.611Z,70.66
2018-09-29T21:04:53.184Z,71.40
2018-09-29T21:07:56.833Z,70.70
2018-09-29T21:11:00.532Z,70.98
2018-09-29T21:14:04.224Z,71.36
2018-09-29T21:17:07.756Z,71.44
2018-09-29T21:20:11.476Z,70.78
2018-09-29T21:23:15.127Z,71.21
2018-09-29T21:26:18.715Z,71.43
2018-09-29T21:29:22.308Z,71.48
2018-09-29T21:32:25.918Z,71.72
2018-09-29T21:35:29.429Z,72.90
2018-09-29T21:38:33.077Z,73.56
2018-09-29T21:41:36.699Z,73.55
2018-09-29T21:44:40.230Z,74.20
2018-09-29T21:47:43.877Z,73.57
2018-09-29T21:50:47.477Z,73.49
2018-09-29T21:53:51.021Z,73.71
2018-09-29T21:56:54.711Z,73.35
2018-09-29T21:59:58.398Z,72.62
2018-09-29T22:03:01.966Z,72.62
2018-09-29T22:06:05.723Z,72.76
2018-09-29T22:09:09.333Z,73.31
2018-09-29T22:12:12.862Z,73.91
2018-09-29T22:15:16.622Z,73.24
2018-09-29T22:18:20.151Z,73.56
2018-09-29T22:21:23.865Z,74.34
2018-09-29T22:24:27.517Z,74.84
2018-09-29T22:27:31.129Z,74.83
2018-09-29T22:30:34.753Z,76.54
2018-09-29T22:33:38.372Z,76.11
2018-09-29T22:36:41.921Z,76.45
2018-09-29T22:39:45.564Z,76.04
2018-09-29T22:42:49.163Z,76.18
2018-09-29T22:45:52.726Z,75.92
2018-09-29T22:48:56.289Z,74.97
2018-09-29T22:51:59.928Z,75.26
2018-09-29T22:55:03.498Z,74.90
2018-09-29T22:58:07.322Z,75.00
2018-09-29T23:01:10.955Z,74.99
2018-09-29T23:04:14.527Z,75.23
2018-09-29T23:07:18.244Z,73.66
2018-09-29T23:10:21.707Z,73.32
2018-09-29T23:13:25.408Z,73.11
2018-09-29T23:16:28.958Z,72.42
2018-09-29T23:19:32.637Z,72.05
2018-09-29T23:22:36.433Z,69.85
2018-09-29T23:25:39.936Z,68.85
2018-09-29T23:28:43.470Z,70.90
2018-09-29T23:31:47.052Z,69.63
2018-09-29T23:34:50.617Z,67.54
2018-09-29T23:37:54.232Z,68.60
2018-09-29T23:40:58.006Z,67.52
2018-09-29T23:44:01.494Z,67.54
2018-09-29T23:47:05.038Z,68.29
2018-09-29T23:50:08.706Z,68.50
2018-09-29T23:53:13.623Z,68.17
2018-09-29T23:56:17.237Z,67.31
2018-09-29T23:59:20.781Z,66.89
